Terminal Aerodrome Forecast
Issued by NWS

Home | Current Version | Previous Version | Text Only | Print | Product List | Glossary On
Versions: 1 2 3 4 5 6 7 8 9 10 11 12 13 14 15 16 17 18 19 20 21 22 23 24 25 26 27 28 29 30 31 32 33 34 35 36
000
FTUS45 KCYS 291120
TAFLAR
TAF
KLAR 291120Z 2912/3012 01011KT 2SM -SN BR OVC025
     FM291400 06009KT 1SM -SN BR OVC010
     FM291800 07010KT 1/2SM SN FG OVC015
     FM300000 09010KT 2SM -SN BR OVC015
     FM300600 VRB05KT 3SM BR SCT007 OVC012=

USA.gov is the U.S. government's official web portal to all federal, state and local government web resources and services.